Time;durP1;ratioP1;P1;durP2;ratioP2;P2;SDS_P1;SDS_P2;PMS_P1;PMS_P2;Temp;Humidity;BMP_temperature;BMP_pressure;BME280_temperature;BME280_humidity;BME280_pressure;Samples;Min_cycle;Max_cycle;Signal;HPM_P1;HPM_P2
2022/12/11 00:00:24;;;;;;;20.23;9.40;;;;;;;-2.06;100.00;98710.69;5016764;28;20049;-60
2022/12/11 00:02:50;;;;;;;22.60;9.90;;;;;;;-2.32;100.00;98690.69;5016497;28;20152;-56
2022/12/11 00:05:17;;;;;;;23.27;9.88;;;;;;;-2.18;100.00;98678.13;5016792;28;20050;-60
2022/12/11 00:07:46;;;;;;;27.52;11.80;;;;;;;-2.37;100.00;98667.38;5016486;28;20132;-58
2022/12/11 00:10:13;;;;;;;25.52;10.00;;;;;;;-2.24;100.00;98647.84;5016586;28;20442;-56
2022/12/11 00:12:39;;;;;;;24.33;10.32;;;;;;;-2.20;100.00;98638.13;5016333;28;20050;-58
2022/12/11 00:15:06;;;;;;;26.00;10.07;;;;;;;-1.95;100.00;98630.72;5016462;28;20316;-58
2022/12/11 00:17:32;;;;;;;24.88;10.43;;;;;;;-2.27;100.00;98653.00;5016869;28;20096;-55
2022/12/11 00:19:59;;;;;;;19.63;9.82;;;;;;;-2.09;100.00;98651.41;5016745;28;20144;-57
2022/12/11 00:22:26;;;;;;;23.05;10.82;;;;;;;-2.00;100.00;98658.50;5016385;28;20049;-59
2022/12/11 00:24:52;;;;;;;22.15;8.07;;;;;;;-2.11;100.00;98661.63;5016771;28;20248;-57
2022/12/11 00:27:18;;;;;;;22.70;9.82;;;;;;;-2.16;100.00;98662.50;5016323;28;20049;-59
2022/12/11 00:29:45;;;;;;;21.42;9.90;;;;;;;-1.94;100.00;98651.13;5016576;28;20379;-56
2022/12/11 00:32:11;;;;;;;20.33;9.23;;;;;;;-2.15;100.00;98653.34;5017636;28;20054;-59
2022/12/11 00:34:37;;;;;;;20.15;8.02;;;;;;;-2.19;100.00;98652.34;5020126;28;20065;-56
2022/12/11 00:37:04;;;;;;;17.42;7.53;;;;;;;-1.93;100.00;98639.31;5019729;28;20140;-58
2022/12/11 00:39:31;;;;;;;19.60;8.82;;;;;;;-2.19;100.00;98647.00;5020085;28;20050;-60
2022/12/11 00:41:57;;;;;;;19.33;8.15;;;;;;;-2.05;100.00;98647.81;5019616;28;20049;-57
2022/12/11 00:44:23;;;;;;;22.65;9.15;;;;;;;-2.02;100.00;98641.84;5019770;28;20054;-60
2022/12/11 00:46:50;;;;;;;17.63;9.55;;;;;;;-2.20;100.00;98640.00;5019852;28;20144;-56
2022/12/11 00:49:16;;;;;;;18.33;8.48;;;;;;;-2.03;100.00;98650.19;5019746;28;20049;-58
2022/12/11 00:51:42;;;;;;;22.65;8.50;;;;;;;-2.37;100.00;98656.66;5019552;28;20060;-60
2022/12/11 00:54:09;;;;;;;14.70;7.78;;;;;;;-2.24;100.00;98639.78;5019564;28;20439;-55
2022/12/11 00:56:36;;;;;;;16.73;8.35;;;;;;;-2.00;100.00;98630.81;5019543;28;20111;-59
2022/12/11 00:59:02;;;;;;;13.32;6.93;;;;;;;-1.96;100.00;98639.91;5019360;28;20054;-57
2022/12/11 01:01:28;;;;;;;15.75;7.82;;;;;;;-1.91;100.00;98642.47;5019334;28;20300;-61
2022/12/11 01:03:55;;;;;;;20.25;8.35;;;;;;;-2.03;100.00;98651.03;5019311;28;20089;-56
2022/12/11 01:06:24;;;;;;;17.55;8.30;;;;;;;-2.11;100.00;98650.88;5019666;28;20046;-54
2022/12/11 01:10:22;;;;;;;16.83;8.57;;;;;;;-1.89;100.00;98653.72;5019176;28;20053;-58
2022/12/11 01:11:39;;;;;;;16.23;9.10;;;;;;;-2.16;100.00;98659.84;5019094;28;20049;-59
2022/12/11 01:14:05;;;;;;;16.77;8.18;;;;;;;-2.32;100.00;98666.53;5019024;28;20057;-59
2022/12/11 01:16:32;;;;;;;17.95;8.57;;;;;;;-2.11;100.00;98658.94;5019293;28;20418;-60
2022/12/11 01:18:59;;;;;;;22.45;8.15;;;;;;;-2.22;100.00;98658.31;5019208;28;20195;-56
2022/12/11 01:21:25;;;;;;;15.00;7.75;;;;;;;-2.37;100.00;98656.66;5019051;28;20096;-60
2022/12/11 01:23:52;;;;;;;20.83;8.45;;;;;;;-2.50;100.00;98639.41;5019269;28;20058;-58
2022/12/11 01:26:18;;;;;;;20.27;8.70;;;;;;;-2.44;100.00;98614.06;5018955;28;20105;-60
2022/12/11 01:28:49;;;;;;;22.00;9.95;;;;;;;-2.46;100.00;98602.84;5019287;28;20064;-52
2022/12/11 01:31:17;;;;;;;15.80;8.45;;;;;;;-2.57;100.00;98595.22;5019086;28;20108;-52
2022/12/11 01:33:43;;;;;;;20.25;8.93;;;;;;;-2.15;100.00;98578.16;5019225;28;20109;-58
2022/12/11 01:36:12;;;;;;;19.95;8.05;;;;;;;-2.44;100.00;98589.91;5018868;28;20050;-57
2022/12/11 01:38:39;;;;;;;21.52;9.88;;;;;;;-2.35;100.00;98589.25;5019013;28;20088;-54
2022/12/11 01:41:06;;;;;;;20.98;8.82;;;;;;;-2.19;100.00;98588.69;5019003;28;20081;-57
2022/12/11 01:43:32;;;;;;;22.05;9.88;;;;;;;-2.00;100.00;98580.59;5018303;28;20080;-54
2022/12/11 01:45:59;;;;;;;19.23;8.90;;;;;;;-1.99;100.00;98592.13;5018828;28;20200;-58
2022/12/11 01:48:29;;;;;;;25.88;10.23;;;;;;;-2.18;100.00;98602.91;5018627;28;20060;-54
2022/12/11 01:50:59;;;;;;;16.60;7.80;;;;;;;-2.20;100.00;98603.22;5019032;28;20050;-53
2022/12/11 01:53:28;;;;;;;16.88;9.15;;;;;;;-2.39;100.00;98605.16;5018483;28;20309;-54
2022/12/11 01:55:56;;;;;;;22.02;8.23;;;;;;;-2.14;100.00;98601.22;5019072;28;20332;-57
2022/12/11 01:58:25;;;;;;;31.48;7.45;;;;;;;-2.38;100.00;98606.75;5018455;28;20141;-58
2022/12/11 02:00:53;;;;;;;11.88;6.78;;;;;;;-2.60;100.00;98615.38;5018817;28;20185;-58
2022/12/11 02:03:20;;;;;;;19.27;9.02;;;;;;;-2.35;100.00;98592.72;5018709;28;20323;-56
2022/12/11 02:05:47;;;;;;;18.77;8.80;;;;;;;-2.28;100.00;98584.31;5018580;28;20085;-58
2022/12/11 02:08:13;;;;;;;22.48;9.18;;;;;;;-2.29;100.00;98598.81;5018560;28;20331;-55
2022/12/11 02:10:51;;;;;;;27.58;9.40;;;;;;;-2.34;100.00;98593.53;5018263;28;20145;-57
2022/12/11 02:13:23;;;;;;;19.40;8.07;;;;;;;-2.21;100.00;98596.25;5018707;28;20049;-55
2022/12/11 02:15:56;;;;;;;19.25;9.15;;;;;;;-2.26;100.00;98598.25;5018327;28;20390;-55
2022/12/11 02:18:31;;;;;;;21.60;8.88;;;;;;;-2.39;100.00;98594.41;5018656;28;20050;-58
2022/12/11 02:21:02;;;;;;;20.83;9.75;;;;;;;-2.24;100.00;98586.09;5018156;28;20401;-56
2022/12/11 02:23:53;;;;;;;19.55;9.13;;;;;;;-2.50;100.00;98587.59;5018393;28;20320;-57
2022/12/11 02:26:34;;;;;;;22.77;8.93;;;;;;;-2.74;100.00;98585.03;5018222;28;20388;-54
2022/12/11 02:29:05;;;;;;;22.48;9.50;;;;;;;-2.05;100.00;98553.03;5018445;28;20281;-58
2022/12/11 02:31:38;;;;;;;21.70;9.38;;;;;;;-2.18;100.00;98570.69;5018336;28;20060;-58
2022/12/11 02:34:10;;;;;;;19.85;10.40;;;;;;;-2.40;100.00;98576.69;5017934;28;20120;-54
2022/12/11 02:36:41;;;;;;;22.52;9.27;;;;;;;-2.31;100.00;98576.84;5018428;28;20050;-57
2022/12/11 02:39:11;;;;;;;22.73;9.13;;;;;;;-2.49;100.00;98557.00;5017935;28;20140;-58
2022/12/11 02:41:40;;;;;;;23.85;11.68;;;;;;;-2.50;100.00;98540.13;5017858;28;20062;-59
2022/12/11 02:44:10;;;;;;;19.25;8.00;;;;;;;-2.47;100.00;98531.44;5018057;28;20332;-57
2022/12/11 02:46:39;;;;;;;20.33;8.90;;;;;;;-2.56;100.00;98525.19;5017744;28;20061;-58
2022/12/11 02:49:08;;;;;;;22.63;9.35;;;;;;;-2.42;100.00;98514.47;5017869;28;20400;-57
2022/12/11 02:51:38;;;;;;;39.58;8.60;;;;;;;-2.54;100.00;98525.66;5017668;28;20145;-58
2022/12/11 02:54:10;;;;;;;21.30;9.40;;;;;;;-2.68;100.00;98519.47;5017845;28;20093;-57
2022/12/11 02:56:40;;;;;;;23.10;9.98;;;;;;;-2.19;100.00;98521.56;5016569;28;20058;-52
2022/12/11 02:59:12;;;;;;;22.85;9.82;;;;;;;-2.14;100.00;98531.41;5018001;28;20054;-51
2022/12/11 03:01:38;;;;;;;21.88;9.75;;;;;;;-2.52;100.00;98550.34;5017817;28;20076;-55
2022/12/11 03:04:05;;;;;;;18.63;8.48;;;;;;;-2.47;100.00;98544.06;5017428;28;20058;-58
2022/12/11 03:06:35;;;;;;;23.08;9.98;;;;;;;-2.47;100.00;98539.50;5018118;28;20061;-57
2022/12/11 03:09:02;;;;;;;17.25;7.75;;;;;;;-2.49;100.00;98546.28;5017615;28;20133;-56
2022/12/11 03:11:28;;;;;;;26.30;9.88;;;;;;;-2.33;100.00;98549.47;5017596;28;20096;-58
2022/12/11 03:13:55;;;;;;;23.20;10.27;;;;;;;-2.33;100.00;98550.28;5017281;28;20076;-57
2022/12/11 03:16:33;;;;;;;21.48;10.90;;;;;;;-2.31;100.00;98536.56;5017577;28;20054;-59
2022/12/11 03:19:10;;;;;;;20.13;9.07;;;;;;;-2.27;100.00;98535.66;5017268;28;20136;-60
2022/12/11 03:21:43;;;;;;;20.95;10.32;;;;;;;-2.74;100.00;98559.00;5017694;28;20140;-60
2022/12/11 03:24:17;;;;;;;22.75;10.23;;;;;;;-2.71;100.00;98549.56;5017458;28;20100;-59
2022/12/11 03:26:47;;;;;;;18.00;9.02;;;;;;;-2.46;100.00;98541.09;5017128;28;20057;-55
2022/12/11 03:29:19;;;;;;;21.95;10.38;;;;;;;-2.21;100.00;98537.16;5017174;28;20105;-59
2022/12/11 03:31:52;;;;;;;17.85;8.85;;;;;;;-2.23;100.00;98544.75;5016959;28;20045;-57
2022/12/11 03:34:23;;;;;;;21.38;9.82;;;;;;;-2.27;100.00;98538.34;5017387;28;20107;-56
2022/12/11 03:36:52;;;;;;;20.48;9.07;;;;;;;-2.25;100.00;98546.91;5016970;28;20131;-58
2022/12/11 03:39:24;;;;;;;21.88;9.70;;;;;;;-2.56;100.00;98554.69;5017400;28;20100;-59
2022/12/11 03:41:52;;;;;;;22.88;10.35;;;;;;;-2.19;100.00;98545.75;5017267;28;20132;-57
2022/12/11 03:44:20;;;;;;;20.42;10.20;;;;;;;-2.36;100.00;98545.50;5017324;28;20088;-58
2022/12/11 03:46:51;;;;;;;21.80;9.85;;;;;;;-2.37;100.00;98541.22;5017040;28;20061;-55
2022/12/11 03:49:22;;;;;;;20.13;10.18;;;;;;;-2.43;100.00;98540.53;5016775;28;20622;-59
2022/12/11 03:51:51;;;;;;;20.30;9.07;;;;;;;-2.62;100.00;98523.66;5017109;28;20095;-59
2022/12/11 03:54:18;;;;;;;21.73;10.68;;;;;;;-2.34;100.00;98507.63;5016708;28;20093;-55
2022/12/11 03:56:46;;;;;;;18.88;8.88;;;;;;;-2.25;100.00;98503.94;5017057;28;20104;-56
2022/12/11 03:59:12;;;;;;;25.95;10.02;;;;;;;-2.41;100.00;98508.78;5016695;28;20099;-55
2022/12/11 04:01:38;;;;;;;21.95;8.90;;;;;;;-2.50;100.00;98521.31;5016656;28;20072;-59
2022/12/11 04:04:06;;;;;;;17.10;8.95;;;;;;;-2.47;100.00;98514.53;5016616;28;20058;-58
2022/12/11 04:06:32;;;;;;;20.50;8.43;;;;;;;-2.24;100.00;98520.84;5016710;28;20050;-54
2022/12/11 04:08:58;;;;;;;17.02;8.95;;;;;;;-2.04;100.00;98528.53;5016575;28;20162;-58
2022/12/11 04:11:34;;;;;;;19.85;8.35;;;;;;;-2.00;100.00;98548.34;5016415;28;20053;-54
2022/12/11 04:16:44;;;;;;;19.75;7.95;;;;;;;-2.23;100.00;98557.34;5016575;28;20068;-58
2022/12/11 04:24:40;;;;;;;;;;;;;;;-2.51;100.00;98543.06;5017322;28;20069;-60
2022/12/11 04:27:07;;;;;;;18.85;8.20;;;;;;;-2.34;100.00;98529.09;5016290;28;20267;-56
2022/12/11 04:29:33;;;;;;;17.45;7.72;;;;;;;-2.29;100.00;98529.81;5016232;28;20054;-60
2022/12/11 04:31:59;;;;;;;17.75;9.10;;;;;;;-2.40;100.00;98534.56;5016520;28;20084;-60
2022/12/11 04:34:26;;;;;;;17.60;8.05;;;;;;;-2.55;100.00;98537.50;5016152;28;20065;-53
2022/12/11 04:36:53;;;;;;;17.42;8.15;;;;;;;-2.32;100.00;98527.72;5016558;28;20381;-60
2022/12/11 04:39:19;;;;;;;17.52;7.55;;;;;;;-2.41;100.00;98546.38;5016359;28;20160;-56
2022/12/11 04:41:45;;;;;;;18.75;8.70;;;;;;;-2.52;100.00;98541.50;5016349;28;20412;-57
2022/12/11 04:44:11;;;;;;;20.52;8.25;;;;;;;-2.62;100.00;98527.13;5016231;28;20389;-55
2022/12/11 04:46:38;;;;;;;21.25;8.95;;;;;;;-2.75;100.00;98527.09;5016527;28;20065;-57
2022/12/11 04:49:04;;;;;;;18.55;8.57;;;;;;;-2.49;100.00;98506.00;5016090;28;20081;-60
2022/12/11 04:51:31;;;;;;;25.27;8.85;;;;;;;-2.39;100.00;98527.31;5016356;28;20141;-56
2022/12/11 04:53:58;;;;;;;16.50;7.95;;;;;;;-2.38;100.00;98532.38;5016018;28;20058;-55
2022/12/11 04:56:24;;;;;;;18.40;9.95;;;;;;;-2.40;100.00;98539.94;5016361;28;20061;-58
2022/12/11 04:58:50;;;;;;;18.98;8.85;;;;;;;-2.58;100.00;98535.41;5015927;28;20148;-56
2022/12/11 05:01:19;;;;;;;19.50;9.02;;;;;;;-2.63;100.00;98530.13;5016134;28;20061;-58
2022/12/11 05:03:46;;;;;;;21.50;8.75;;;;;;;-2.46;100.00;98511.59;5015912;28;20061;-57
2022/12/11 05:06:13;;;;;;;18.60;9.55;;;;;;;-2.76;100.00;98512.09;5015848;28;20474;-55
2022/12/11 05:08:41;;;;;;;19.38;8.63;;;;;;;-2.72;100.00;98500.47;5016014;28;20065;-59
2022/12/11 05:11:09;;;;;;;19.02;9.10;;;;;;;-2.70;100.00;98490.25;5015768;28;20053;-59
2022/12/11 05:13:35;;;;;;;22.23;9.77;;;;;;;-2.56;100.00;98487.59;5015954;28;20399;-58
2022/12/11 05:16:04;;;;;;;21.48;11.45;;;;;;;-2.67;100.00;98495.00;5015711;28;20383;-56
2022/12/11 05:18:30;;;;;;;17.75;8.63;;;;;;;-2.80;100.00;98500.34;5016866;28;20133;-61
2022/12/11 05:20:58;;;;;;;16.65;9.00;;;;;;;-2.83;100.00;98493.69;5019055;28;20181;-55
2022/12/11 05:23:25;;;;;;;20.33;10.02;;;;;;;-2.72;100.00;98491.63;5019477;28;20107;-59
2022/12/11 05:25:53;;;;;;;21.60;9.75;;;;;;;-2.51;100.00;98484.03;5018994;28;20157;-56
2022/12/11 05:28:21;;;;;;;20.05;8.82;;;;;;;-2.46;100.00;98483.94;5018922;28;20434;-59
2022/12/11 05:30:47;;;;;;;21.83;11.55;;;;;;;-2.55;100.00;98509.88;5018972;28;20115;-60
2022/12/11 05:33:13;;;;;;;25.13;9.90;;;;;;;-2.55;100.00;98512.56;5018881;28;20388;-56
2022/12/11 05:35:46;;;;;;;20.08;9.93;;;;;;;-2.65;100.00;98500.91;5019033;28;20049;-55
2022/12/11 05:38:12;;;;;;;33.38;12.68;;;;;;;-2.76;100.00;98502.16;5018897;28;20057;-59
2022/12/11 05:40:39;;;;;;;22.27;9.75;;;;;;;-2.80;100.00;98494.97;5019137;28;20056;-60
2022/12/11 05:43:07;;;;;;;18.08;9.02;;;;;;;-2.71;100.00;98485.19;5018553;28;20057;-56
2022/12/11 05:45:33;;;;;;;16.20;7.80;;;;;;;-2.80;100.00;98487.72;5019081;28;20119;-59
2022/12/11 05:48:00;;;;;;;14.73;8.45;;;;;;;-2.90;100.00;98469.13;5018638;28;20046;-57
2022/12/11 05:50:26;;;;;;;22.08;10.10;;;;;;;-2.79;100.00;98459.81;5018498;28;20334;-57
2022/12/11 05:52:52;;;;;;;21.98;10.10;;;;;;;-2.71;100.00;98456.44;5018741;28;20065;-59
2022/12/11 05:55:19;;;;;;;22.48;10.38;;;;;;;-2.81;100.00;98448.56;5018652;28;20046;-57
2022/12/11 05:57:45;;;;;;;19.85;9.10;;;;;;;-2.84;100.00;98451.84;5018755;28;20049;-59
2022/12/11 06:00:12;;;;;;;19.13;10.77;;;;;;;-2.71;100.00;98431.50;5018446;28;20096;-58
2022/12/11 06:02:39;;;;;;;22.88;10.40;;;;;;;-2.99;100.00;98431.47;5018811;28;20415;-58
2022/12/11 06:05:06;;;;;;;19.00;8.27;;;;;;;-2.74;100.00;98434.78;5018483;28;20092;-54
2022/12/11 06:07:32;;;;;;;20.17;9.15;;;;;;;-2.34;100.00;98424.41;5018676;28;20152;-58
2022/12/11 06:09:58;;;;;;;15.98;7.40;;;;;;;-2.92;100.00;98447.97;5018383;28;20415;-57
2022/12/11 06:12:25;;;;;;;17.23;8.25;;;;;;;-2.70;100.00;98454.56;5018748;28;20136;-57
2022/12/11 06:14:51;;;;;;;11.73;6.28;;;;;;;-2.76;100.00;98453.09;5018114;28;20470;-56
2022/12/11 06:17:18;;;;;;;15.45;6.93;;;;;;;-2.73;100.00;98461.34;5018686;28;20199;-60
2022/12/11 06:19:44;;;;;;;16.48;8.10;;;;;;;-2.52;100.00;98451.03;5018347;28;20053;-57
2022/12/11 06:22:10;;;;;;;11.38;5.45;;;;;;;-2.59;100.00;98461.34;5018051;28;20054;-58
2022/12/11 06:24:37;;;;;;;13.07;6.40;;;;;;;-2.77;100.00;98460.31;5018123;28;20141;-54
2022/12/11 06:27:03;;;;;;;12.60;6.72;;;;;;;-2.55;100.00;98462.34;5018090;28;20068;-54
2022/12/11 06:29:30;;;;;;;12.70;6.40;;;;;;;-2.53;100.00;98457.50;5017891;28;20416;-59
2022/12/11 06:31:56;;;;;;;9.68;5.53;;;;;;;-2.91;100.00;98480.94;5017950;28;20090;-55
2022/12/11 06:34:23;;;;;;;12.07;6.05;;;;;;;-2.79;100.00;98461.72;5018049;28;20446;-54
2022/12/11 06:36:49;;;;;;;10.98;6.28;;;;;;;-2.77;100.00;98459.50;5017957;28;20075;-54
2022/12/11 06:39:15;;;;;;;14.32;7.38;;;;;;;-2.62;100.00;98467.31;5018179;28;20065;-59
2022/12/11 06:41:42;;;;;;;12.95;7.07;;;;;;;-2.58;100.00;98479.03;5017849;28;20050;-58
2022/12/11 06:44:08;;;;;;;10.75;5.80;;;;;;;-2.54;100.00;98485.41;5018268;28;20136;-57
2022/12/11 06:46:35;;;;;;;10.25;6.03;;;;;;;-2.66;100.00;98499.31;5017641;28;20054;-56
2022/12/11 06:49:01;;;;;;;13.32;6.97;;;;;;;-2.65;100.00;98484.78;5017648;28;20107;-62
2022/12/11 06:51:28;;;;;;;9.77;5.60;;;;;;;-2.80;100.00;98486.94;5017626;28;20054;-57
2022/12/11 06:53:56;;;;;;;10.57;5.03;;;;;;;-2.58;100.00;98480.94;5017622;28;20142;-58
2022/12/11 06:56:23;;;;;;;9.63;5.68;;;;;;;-2.74;100.00;98481.19;5017425;28;20196;-55
2022/12/11 06:58:50;;;;;;;10.95;6.18;;;;;;;-2.76;100.00;98496.00;5017293;28;20372;-57
2022/12/11 07:01:19;;;;;;;10.68;6.55;;;;;;;-2.68;100.00;98489.94;5017451;28;20050;-58
2022/12/11 07:03:45;;;;;;;10.90;6.45;;;;;;;-2.78;100.00;98488.22;5017449;28;20054;-57
2022/12/11 07:06:12;;;;;;;9.77;5.45;;;;;;;-2.50;100.00;98482.94;5017756;28;20058;-55
2022/12/11 07:08:40;;;;;;;11.93;6.93;;;;;;;-2.69;100.00;98485.69;5017306;28;20420;-53
2022/12/11 07:11:08;;;;;;;11.90;6.85;;;;;;;-2.89;100.00;98476.88;5017173;28;20191;-56
2022/12/11 07:13:34;;;;;;;11.80;6.28;;;;;;;-2.78;100.00;98480.19;5017079;28;20383;-59
2022/12/11 07:16:03;;;;;;;10.95;6.32;;;;;;;-2.74;100.00;98475.03;5017478;28;20339;-58
2022/12/11 07:18:29;;;;;;;10.38;6.60;;;;;;;-2.81;100.00;98463.88;5017283;28;20057;-56
2022/12/11 07:20:58;;;;;;;12.02;6.20;;;;;;;-2.68;100.00;98460.44;5017143;28;20085;-56
2022/12/11 07:23:24;;;;;;;12.05;5.90;;;;;;;-2.67;100.00;98472.75;5017392;28;20297;-55
2022/12/11 07:25:51;;;;;;;14.10;8.15;;;;;;;-2.86;100.00;98481.66;5017163;28;20148;-58
2022/12/11 07:28:17;;;;;;;9.57;6.22;;;;;;;-2.98;100.00;98475.94;5017419;28;20081;-55
2022/12/11 07:30:44;;;;;;;10.43;5.85;;;;;;;-2.49;100.00;98476.50;5016953;28;20147;-58
2022/12/11 07:33:10;;;;;;;13.43;6.53;;;;;;;-2.59;100.00;98487.41;5017222;28;20136;-54
2022/12/11 07:35:36;;;;;;;15.00;7.13;;;;;;;-2.53;100.00;98483.50;5016849;28;20053;-55
2022/12/11 07:38:03;;;;;;;15.45;7.28;;;;;;;-2.79;100.00;98502.75;5017234;28;20058;-60
2022/12/11 07:40:29;;;;;;;13.68;6.28;;;;;;;-2.96;100.00;98481.03;5016830;28;20050;-58
2022/12/11 07:42:56;;;;;;;10.23;5.95;;;;;;;-2.94;100.00;98462.75;5016643;28;20060;-55
2022/12/11 07:45:25;;;;;;;11.52;5.78;;;;;;;-2.72;100.00;98446.03;5016626;28;20144;-58
2022/12/11 07:47:51;;;;;;;11.25;5.90;;;;;;;-2.86;100.00;98460.19;5016940;28;20331;-58
2022/12/11 07:50:18;;;;;;;10.23;6.00;;;;;;;-2.86;100.00;98459.41;5016696;28;20049;-59
2022/12/11 07:52:44;;;;;;;15.52;6.50;;;;;;;-2.62;100.00;98460.06;5016870;28;20077;-55
2022/12/11 07:55:10;;;;;;;12.02;5.90;;;;;;;-2.82;100.00;98462.31;5016827;28;20390;-54
2022/12/11 07:57:37;;;;;;;12.95;7.20;;;;;;;-2.70;100.00;98455.38;5016524;28;20137;-58
2022/12/11 08:00:05;;;;;;;12.23;6.28;;;;;;;-2.95;100.00;98451.22;5016711;28;20137;-55
2022/12/11 08:02:31;;;;;;;9.65;5.85;;;;;;;-2.69;100.00;98445.44;5016530;28;20053;-56
2022/12/11 08:04:58;;;;;;;13.93;7.40;;;;;;;-2.63;100.00;98449.63;5016865;28;20100;-56
2022/12/11 08:07:24;;;;;;;12.90;6.85;;;;;;;-2.86;100.00;98454.84;5016374;28;20081;-55
2022/12/11 08:09:50;;;;;;;10.52;5.82;;;;;;;-2.79;100.00;98453.66;5016701;28;20204;-58
2022/12/11 08:12:17;;;;;;;15.10;7.28;;;;;;;-2.90;100.00;98453.03;5016282;28;20089;-56
2022/12/11 08:14:43;;;;;;;10.73;6.68;;;;;;;-2.89;100.00;98447.38;5016113;28;20050;-59
2022/12/11 08:17:10;;;;;;;19.60;8.88;;;;;;;-2.91;100.00;98449.53;5016318;28;20061;-55
2022/12/11 08:19:36;;;;;;;19.67;5.63;;;;;;;-2.81;100.00;98429.81;5016419;28;20053;-58
2022/12/11 08:22:03;;;;;;;16.85;6.47;;;;;;;-2.98;100.00;98440.28;5016438;28;20149;-52
2022/12/11 08:24:30;;;;;;;16.73;6.65;;;;;;;-2.94;100.00;98430.56;5016723;28;20199;-55
2022/12/11 08:26:56;;;;;;;14.82;6.63;;;;;;;-2.76;100.00;98415.53;5016475;28;20107;-59
2022/12/11 08:29:22;;;;;;;10.38;5.40;;;;;;;-2.80;100.00;98414.50;5016414;28;20100;-53
2022/12/11 08:31:49;;;;;;;14.82;7.40;;;;;;;-2.78;100.00;98397.03;5016438;28;20487;-57
2022/12/11 08:34:16;;;;;;;13.73;6.18;;;;;;;-3.11;100.00;98401.63;5016133;28;20061;-58
2022/12/11 08:36:43;;;;;;;16.67;7.00;;;;;;;-2.79;100.00;98382.03;5016771;28;20065;-57
2022/12/11 08:39:09;;;;;;;15.43;7.65;;;;;;;-2.65;100.00;98382.81;5016222;28;20109;-57
2022/12/11 08:41:35;;;;;;;11.88;6.00;;;;;;;-2.59;100.00;98377.38;5016104;28;20403;-53
2022/12/11 08:44:02;;;;;;;12.70;6.22;;;;;;;-2.83;100.00;98397.13;5016101;28;20074;-59
2022/12/11 08:46:30;;;;;;;17.60;6.43;;;;;;;-2.85;100.00;98400.09;5016216;28;20081;-58
2022/12/11 08:48:57;;;;;;;12.85;6.15;;;;;;;-2.60;100.00;98387.28;5016074;28;20060;-59
2022/12/11 08:51:26;;;;;;;12.20;6.10;;;;;;;-2.43;100.00;98379.47;5015884;28;20085;-54
2022/12/11 08:53:54;;;;;;;9.43;5.43;;;;;;;-2.74;100.00;98405.28;5016868;28;20053;-60
2022/12/11 08:56:22;;;;;;;15.57;7.07;;;;;;;-2.63;100.00;98377.97;5019178;28;20137;-60
2022/12/11 08:58:49;;;;;;;15.05;6.47;;;;;;;-2.44;100.00;98387.81;5019565;28;20115;-57
2022/12/11 09:01:20;;;;;;;15.20;7.03;;;;;;;-2.51;100.00;98392.78;5019496;28;20054;-58
2022/12/11 09:03:46;;;;;;;14.80;6.60;;;;;;;-2.53;100.00;98394.94;5019505;28;20088;-59
2022/12/11 09:06:15;;;;;;;11.27;5.45;;;;;;;-2.62;100.00;98398.34;5018971;28;20057;-56
2022/12/11 09:08:43;;;;;;;15.00;6.13;;;;;;;-2.44;100.00;98403.91;5018959;28;20145;-58
2022/12/11 09:11:11;;;;;;;12.93;6.45;;;;;;;-2.54;100.00;98388.78;5019566;28;20066;-58
2022/12/11 09:13:38;;;;;;;15.25;6.85;;;;;;;-2.52;100.00;98396.56;5019158;28;20064;-58
2022/12/11 09:16:06;;;;;;;12.35;6.43;;;;;;;-2.33;100.00;98394.59;5019433;28;20057;-56
2022/12/11 09:18:32;;;;;;;10.65;6.05;;;;;;;-2.72;100.00;98384.31;5018938;28;20152;-59
2022/12/11 09:21:00;;;;;;;11.20;5.68;;;;;;;-2.69;100.00;98381.03;5019418;28;20115;-53
2022/12/11 09:23:26;;;;;;;11.15;5.35;;;;;;;-2.64;100.00;98389.78;5018912;28;20507;-55
2022/12/11 09:25:53;;;;;;;6.88;4.65;;;;;;;-2.76;100.00;98400.22;5019249;28;20065;-55
2022/12/11 09:28:20;;;;;;;12.60;7.75;;;;;;;-2.51;100.00;98390.88;5018873;28;20081;-58
2022/12/11 09:30:46;;;;;;;16.13;7.82;;;;;;;-2.65;100.00;98388.19;5019199;28;20149;-57
2022/12/11 09:33:15;;;;;;;10.52;5.32;;;;;;;-2.63;100.00;98387.91;5018602;28;20149;-56
2022/12/11 09:35:42;;;;;;;14.50;6.85;;;;;;;-2.63;100.00;98379.88;5018584;28;20119;-56
2022/12/11 09:38:11;;;;;;;15.27;7.60;;;;;;;-2.57;100.00;98367.91;5018964;28;20108;-56
2022/12/11 09:40:42;;;;;;;10.88;6.57;;;;;;;-2.42;100.00;98364.16;5018678;28;20053;-56
2022/12/11 09:43:30;;;;;;;14.60;6.32;;;;;;;-2.44;100.00;98359.06;5019064;28;20342;-59
2022/12/11 09:45:56;;;;;;;12.98;6.10;;;;;;;-2.71;100.00;98354.50;5018634;28;20054;-60
2022/12/11 09:48:25;;;;;;;11.70;5.65;;;;;;;-2.43;100.00;98341.88;5018935;28;20054;-59
2022/12/11 09:50:54;;;;;;;15.73;6.55;;;;;;;-2.46;100.00;98339.00;5018576;28;20088;-58
2022/12/11 09:53:28;;;;;;;11.35;5.57;;;;;;;-2.57;100.00;98334.94;5018858;28;20085;-55
2022/12/11 09:55:56;;;;;;;;;;;;;;;-2.67;100.00;98331.34;5018836;28;20097;-58
2022/12/11 09:58:32;;;;;;;14.00;5.85;;;;;;;-2.66;100.00;98341.00;5018424;28;20020;-60
2022/12/11 10:01:05;;;;;;;11.43;6.20;;;;;;;-2.38;100.00;98324.88;5018582;28;20360;-58
2022/12/11 10:03:48;;;;;;;13.60;6.53;;;;;;;-2.52;100.00;98316.84;5018148;28;20050;-59
2022/12/11 10:06:20;;;;;;;11.07;6.47;;;;;;;-2.43;100.00;98308.91;5018152;28;20075;-57
2022/12/11 10:08:56;;;;;;;13.63;6.13;;;;;;;-2.44;100.00;98291.19;5018252;28;20053;-56
2022/12/11 10:11:40;;;;;;;11.23;6.20;;;;;;;-2.49;100.00;98293.97;5018568;28;20100;-57
2022/12/11 10:14:12;;;;;;;14.68;5.72;;;;;;;-2.43;100.00;98271.31;5018396;28;20100;-59
2022/12/11 10:16:43;;;;;;;13.57;5.95;;;;;;;-2.71;100.00;98271.34;5018495;28;20459;-55
2022/12/11 10:19:16;;;;;;;11.05;6.07;;;;;;;-2.50;100.00;98261.00;5018171;28;20137;-57
2022/12/11 10:21:43;;;;;;;13.50;7.13;;;;;;;-2.71;100.00;98249.88;5018417;28;20049;-56
2022/12/11 10:24:17;;;;;;;12.25;5.88;;;;;;;-2.54;100.00;98238.50;5018275;28;20065;-57
2022/12/11 10:26:45;;;;;;;13.95;6.13;;;;;;;-2.44;100.00;98230.22;5017843;28;20454;-53
2022/12/11 10:29:15;;;;;;;11.93;6.20;;;;;;;-2.65;100.00;98221.84;5018373;28;20133;-58
2022/12/11 10:31:48;;;;;;;11.20;6.00;;;;;;;-2.83;100.00;98206.69;5017583;28;20065;-59
2022/12/11 10:34:20;;;;;;;13.55;6.03;;;;;;;-2.65;100.00;98200.38;5017679;28;20411;-55
2022/12/11 10:36:46;;;;;;;30.00;7.40;;;;;;;-2.80;100.00;98192.63;5018058;28;20064;-55
2022/12/11 10:39:14;;;;;;;11.70;5.68;;;;;;;-2.79;100.00;98196.16;5017826;28;20049;-56
2022/12/11 10:41:43;;;;;;;9.65;4.53;;;;;;;-2.45;100.00;98183.03;5017899;28;20195;-60
2022/12/11 10:44:18;;;;;;;8.77;5.05;;;;;;;-2.75;100.00;98178.34;5017743;28;20141;-59
2022/12/11 10:46:45;;;;;;;10.02;4.95;;;;;;;-2.77;100.00;98175.16;5017818;28;20049;-59
2022/12/11 10:49:24;;;;;;;11.05;5.75;;;;;;;-2.54;100.00;98159.91;5017533;28;20046;-58
2022/12/11 10:51:53;;;;;;;17.08;6.10;;;;;;;-2.77;100.00;98149.13;5017970;28;20321;-60
2022/12/11 10:54:30;;;;;;;12.93;6.55;;;;;;;-2.69;100.00;98131.53;5017677;28;20137;-59
2022/12/11 10:56:58;;;;;;;9.00;5.97;;;;;;;-2.81;100.00;98115.97;5017264;28;20431;-56
2022/12/11 10:59:33;;;;;;;14.55;6.72;;;;;;;-2.93;100.00;98097.72;5017544;28;20050;-59
2022/12/11 11:02:00;;;;;;;15.93;7.45;;;;;;;-3.02;100.00;98061.19;5017434;28;20054;-57
2022/12/11 11:04:31;;;;;;;12.30;6.60;;;;;;;-2.98;100.00;98062.19;5017757;28;20112;-53
2022/12/11 11:07:11;;;;;;;15.80;7.57;;;;;;;-3.12;100.00;98049.59;5017418;28;20050;-58
2022/12/11 11:09:39;;;;;;;12.18;6.85;;;;;;;-3.00;100.00;98022.28;5017856;28;20054;-54
2022/12/11 11:12:18;;;;;;;14.50;7.28;;;;;;;-2.85;100.00;98005.81;5017276;28;20219;-59
2022/12/11 11:14:45;;;;;;;11.32;6.43;;;;;;;-2.84;100.00;98004.69;5017225;28;20136;-59
2022/12/11 11:17:15;;;;;;;16.92;8.18;;;;;;;-2.90;100.00;97997.06;5016641;28;20061;-57
2022/12/11 11:19:46;;;;;;;8.70;4.72;;;;;;;-2.74;100.00;97976.03;5017347;28;20081;-56
2022/12/11 11:22:16;;;;;;;20.17;7.55;;;;;;;-2.68;100.00;97990.91;5017301;28;20069;-58
2022/12/11 11:24:45;;;;;;;14.70;7.00;;;;;;;-2.76;100.00;97984.41;5017117;28;20326;-56
2022/12/11 11:27:13;;;;;;;17.63;8.43;;;;;;;-2.64;100.00;97998.03;5017385;28;20085;-59
2022/12/11 11:29:41;;;;;;;12.25;5.95;;;;;;;-2.59;100.00;97973.00;5017000;28;20050;-59